createdAt,value
2018-05-11T00:01:58.644Z,98.10
2018-05-11T00:04:26.147Z,98.10
2018-05-11T00:06:53.655Z,98.20
2018-05-11T00:09:22.688Z,98.20
2018-05-11T00:11:50.189Z,98.50
2018-05-11T00:14:17.721Z,98.30
2018-05-11T00:16:45.224Z,98.30
2018-05-11T00:19:12.744Z,98.30
2018-05-11T00:21:40.240Z,98.30
2018-05-11T00:24:07.781Z,98.50
2018-05-11T00:26:35.280Z,98.60
2018-05-11T00:29:03.573Z,98.70
2018-05-11T00:31:31.846Z,98.70
2018-05-11T00:34:00.117Z,98.70
2018-05-11T00:36:28.404Z,98.70
2018-05-11T00:38:55.906Z,98.70
2018-05-11T00:41:23.429Z,98.80
2018-05-11T00:43:50.936Z,98.90
2018-05-11T00:46:18.456Z,98.90
2018-05-11T00:48:45.956Z,98.80
2018-05-11T00:51:13.480Z,98.90
2018-05-11T00:53:40.977Z,98.90
2018-05-11T00:56:08.477Z,98.90
2018-05-11T00:58:36.006Z,99.00
2018-05-11T01:01:03.512Z,99.00
2018-05-11T01:03:31.037Z,99.00
2018-05-11T01:05:59.305Z,99.00
2018-05-11T01:08:27.600Z,99.30
2018-05-11T01:10:55.101Z,99.00
2018-05-11T01:13:22.600Z,99.00
2018-05-11T01:15:50.889Z,99.30
2018-05-11T01:18:19.156Z,99.00
2018-05-11T01:20:47.445Z,98.90
2018-05-11T01:23:15.708Z,99.00
2018-05-11T01:25:43.997Z,99.10
2018-05-11T01:28:11.500Z,99.00
2018-05-11T01:30:39.020Z,99.00
2018-05-11T01:33:06.524Z,99.10
2018-05-11T01:35:34.025Z,99.20
2018-05-11T01:38:02.317Z,99.30
2018-05-11T01:40:29.821Z,99.30
2018-05-11T01:42:57.344Z,99.40
2018-05-11T01:45:24.849Z,99.50
2018-05-11T01:47:52.377Z,99.50
2018-05-11T01:50:19.876Z,99.70
2018-05-11T01:52:47.377Z,99.70
2018-05-11T01:55:14.897Z,99.80
2018-05-11T01:57:42.396Z,99.80
2018-05-11T02:00:09.920Z,99.90
2018-05-11T02:02:38.188Z,99.90
2018-05-11T02:05:06.476Z,99.90
2018-05-11T02:07:34.740Z,99.90
2018-05-11T02:10:03.035Z,99.90
2018-05-11T02:12:31.307Z,99.90
2018-05-11T02:14:59.596Z,99.90
2018-05-11T02:17:27.862Z,99.90
2018-05-11T02:19:56.129Z,99.90
2018-05-11T02:22:23.652Z,99.90
2018-05-11T02:24:51.154Z,99.90
2018-05-11T02:27:19.445Z,99.90
2018-05-11T02:29:46.940Z,99.90
2018-05-11T02:32:14.465Z,99.90
2018-05-11T02:34:41.974Z,99.90
2018-05-11T02:37:09.505Z,99.90
2018-05-11T02:39:37.005Z,99.90
2018-05-11T02:42:05.273Z,99.90
2018-05-11T02:44:32.802Z,99.90
2018-05-11T02:47:00.306Z,99.90
2018-05-11T02:49:27.834Z,99.90
2018-05-11T02:51:55.336Z,99.90
2018-05-11T02:54:23.633Z,99.90
2018-05-11T02:56:51.140Z,99.90
2018-05-11T02:59:18.661Z,99.90
2018-05-11T03:01:46.164Z,99.90
2018-05-11T03:04:13.664Z,99.90
2018-05-11T03:06:41.185Z,99.90
2018-05-11T03:09:08.687Z,99.90
2018-05-11T03:11:36.213Z,99.90
2018-05-11T03:14:04.485Z,99.90
2018-05-11T03:16:32.010Z,99.90
2018-05-11T03:18:59.513Z,99.90
2018-05-11T03:21:27.800Z,99.90
2018-05-11T03:23:56.069Z,99.90
2018-05-11T03:26:24.332Z,99.90
2018-05-11T03:28:51.861Z,99.90
2018-05-11T03:31:19.361Z,99.90
2018-05-11T03:33:47.653Z,99.90
2018-05-11T03:36:15.153Z,99.90
2018-05-11T03:38:42.676Z,99.90
2018-05-11T03:41:10.184Z,99.90
2018-05-11T03:43:37.711Z,99.90
2018-05-11T03:46:05.208Z,99.90
2018-05-11T03:48:32.709Z,99.90
2018-05-11T03:51:00.233Z,99.90
2018-05-11T03:53:27.737Z,99.90
2018-05-11T03:55:55.261Z,99.90
2018-05-11T03:58:23.532Z,99.90
2018-05-11T04:00:51.065Z,99.90
2018-05-11T04:03:30.389Z,99.90
2018-05-11T04:06:04.498Z,99.90
2018-05-11T04:08:51.874Z,99.90
2018-05-11T04:11:20.165Z,99.90
2018-05-11T04:13:47.666Z,99.90
2018-05-11T04:16:15.199Z,99.90
2018-05-11T04:18:42.700Z,99.90
2018-05-11T04:21:10.200Z,99.90
2018-05-11T04:23:37.728Z,99.90
2018-05-11T04:26:05.237Z,99.90
2018-05-11T04:28:32.766Z,99.90
2018-05-11T04:31:01.032Z,99.90
2018-05-11T04:33:29.321Z,99.90
2018-05-11T04:35:57.585Z,99.90
2018-05-11T04:38:25.857Z,99.90
2018-05-11T04:40:53.384Z,99.90
2018-05-11T04:43:20.880Z,99.90
2018-05-11T04:45:49.168Z,99.90
2018-05-11T04:48:17.441Z,99.90
2018-05-11T04:50:45.729Z,99.90
2018-05-11T04:53:13.229Z,99.90
2018-05-11T04:55:40.729Z,99.90
2018-05-11T04:58:09.023Z,99.90
2018-05-11T05:00:36.533Z,99.90
2018-05-11T05:03:04.057Z,99.90
2018-05-11T05:05:31.556Z,99.90
2018-05-11T05:07:59.081Z,99.90
2018-05-11T05:10:26.580Z,99.90
2018-05-11T05:12:54.849Z,99.90
2018-05-11T05:15:22.389Z,99.90
2018-05-11T05:17:49.889Z,99.90
2018-05-11T05:20:18.176Z,99.90
2018-05-11T05:22:46.450Z,99.90
2018-05-11T05:25:14.741Z,99.90
2018-05-11T05:27:42.246Z,99.90
2018-05-11T05:30:09.748Z,99.90
2018-05-11T05:32:38.121Z,99.90
2018-05-11T05:35:05.566Z,99.90
2018-05-11T05:37:33.096Z,99.90
2018-05-11T05:40:00.597Z,99.90
2018-05-11T05:42:28.890Z,99.90
2018-05-11T05:44:56.397Z,99.90
2018-05-11T05:47:23.897Z,99.90
2018-05-11T05:49:52.189Z,99.90
2018-05-11T05:52:19.689Z,99.90
2018-05-11T05:54:47.212Z,99.90
2018-05-11T05:57:14.713Z,99.90
2018-05-11T05:59:43.005Z,99.90
2018-05-11T06:02:10.505Z,99.90
2018-05-11T06:04:38.038Z,99.90
2018-05-11T06:07:05.549Z,99.90
2018-05-11T06:09:33.049Z,99.90
2018-05-11T06:12:01.336Z,99.90
2018-05-11T06:14:29.601Z,99.90
2018-05-11T06:16:57.889Z,99.90
2018-05-11T06:19:26.161Z,99.90
2018-05-11T06:21:54.450Z,99.90
2018-05-11T06:24:21.953Z,99.90
2018-05-11T06:26:49.876Z,99.90
2018-05-11T06:29:17.372Z,99.90
2018-05-11T06:31:44.874Z,99.90
2018-05-11T06:34:13.165Z,99.90
2018-05-11T06:36:40.671Z,99.90
2018-05-11T06:39:08.193Z,99.90
2018-05-11T06:41:35.693Z,99.90
2018-05-11T06:44:03.216Z,99.90
2018-05-11T06:46:30.717Z,99.90
2018-05-11T06:48:58.241Z,99.90
2018-05-11T06:51:25.749Z,99.90
2018-05-11T06:53:53.252Z,99.90
2018-05-11T06:56:20.781Z,99.90
2018-05-11T06:58:49.049Z,99.90
2018-05-11T07:01:17.341Z,99.90
2018-05-11T07:03:45.609Z,99.90
2018-05-11T07:06:13.907Z,99.90
2018-05-11T07:08:41.409Z,99.90
2018-05-11T07:11:08.937Z,99.60
2018-05-11T07:13:36.437Z,98.70
2018-05-11T07:16:04.729Z,99.10
2018-05-11T07:18:32.996Z,98.90
2018-05-11T07:21:00.541Z,98.70
2018-05-11T07:23:28.041Z,98.10
2018-05-11T07:25:56.304Z,97.30
2018-05-11T07:28:24.592Z,96.50
2018-05-11T07:30:52.858Z,96.10
2018-05-11T07:33:21.145Z,95.50
2018-05-11T07:35:49.409Z,94.80
2018-05-11T07:38:17.724Z,94.90
2018-05-11T07:40:45.224Z,95.20
2018-05-11T07:43:13.565Z,93.60
2018-05-11T07:45:41.807Z,93.90
2018-05-11T07:48:10.073Z,93.80
2018-05-11T07:50:38.366Z,93.20
2018-05-11T07:53:06.628Z,93.30
2018-05-11T07:55:34.917Z,93.30
2018-05-11T07:58:03.185Z,93.60
2018-05-11T08:00:31.477Z,93.70
2018-05-11T08:02:58.989Z,93.70
2018-05-11T08:05:28.021Z,93.60
2018-05-11T08:07:56.281Z,93.00
2018-05-11T08:10:23.784Z,92.90
2018-05-11T08:12:51.305Z,92.70
2018-05-11T08:15:19.577Z,92.10
2018-05-11T08:17:47.861Z,91.90
2018-05-11T08:20:16.130Z,91.80
2018-05-11T08:22:44.421Z,90.90
2018-05-11T08:25:12.697Z,91.00
2018-05-11T08:27:40.204Z,91.00
2018-05-11T08:30:07.749Z,90.90
2018-05-11T08:32:35.249Z,91.30
2018-05-11T08:35:02.773Z,91.50
2018-05-11T08:37:30.278Z,92.00
2018-05-11T08:39:58.572Z,91.50
2018-05-11T08:42:26.850Z,91.00
2018-05-11T08:44:54.374Z,91.00
2018-05-11T08:47:21.876Z,91.00
2018-05-11T08:49:49.401Z,90.20
2018-05-11T08:52:16.905Z,90.20
2018-05-11T08:54:44.441Z,87.50
2018-05-11T08:57:12.734Z,86.60
2018-05-11T08:59:40.229Z,86.40
2018-05-11T09:02:07.757Z,89.70
2018-05-11T09:04:35.258Z,88.70
2018-05-11T09:07:02.789Z,91.50
2018-05-11T09:09:30.288Z,89.40
2018-05-11T09:11:57.808Z,89.40
2018-05-11T09:14:25.310Z,88.10
2018-05-11T09:16:53.649Z,87.80
2018-05-11T09:19:21.148Z,87.60
2018-05-11T09:21:49.412Z,87.90
2018-05-11T09:24:16.933Z,87.90
2018-05-11T09:26:44.433Z,87.60
2018-05-11T09:29:11.957Z,86.00
2018-05-11T09:31:39.503Z,83.10
2018-05-11T09:34:07.034Z,86.40
2018-05-11T09:36:35.301Z,85.40
2018-05-11T09:39:03.591Z,81.90
2018-05-11T09:41:31.090Z,81.90
2018-05-11T09:43:58.612Z,82.40
2018-05-11T09:46:26.124Z,83.40
2018-05-11T09:48:53.629Z,80.10
2018-05-11T09:51:21.153Z,81.50
2018-05-11T09:53:48.664Z,80.60
2018-05-11T09:56:16.196Z,79.60
2018-05-11T09:58:44.461Z,77.40
2018-05-11T10:01:12.753Z,77.40
2018-05-11T10:03:40.247Z,77.40
2018-05-11T10:06:07.773Z,78.50
2018-05-11T10:08:35.277Z,75.30
2018-05-11T10:11:02.780Z,76.10
2018-05-11T10:13:31.072Z,75.00
2018-05-11T10:15:58.564Z,75.00
2018-05-11T10:18:26.093Z,71.90
2018-05-11T10:20:53.637Z,73.50
2018-05-11T10:23:21.141Z,69.70
2018-05-11T10:25:48.640Z,70.00
2018-05-11T10:28:16.937Z,70.50
2018-05-11T10:30:44.440Z,70.50
2018-05-11T10:33:11.943Z,68.80
2018-05-11T10:35:40.229Z,70.00
2018-05-11T10:38:07.729Z,69.80
2018-05-11T10:40:35.258Z,70.60
2018-05-11T10:43:02.757Z,71.20
2018-05-11T10:45:30.281Z,72.20
2018-05-11T10:47:57.781Z,72.20
2018-05-11T10:50:25.313Z,72.40
2018-05-11T10:52:52.813Z,71.90
2018-05-11T10:55:20.342Z,70.50
2018-05-11T10:57:47.849Z,68.10
2018-05-11T11:00:16.113Z,63.00
2018-05-11T11:02:44.400Z,64.00
2018-05-11T11:05:12.668Z,63.10
2018-05-11T11:07:40.958Z,64.30
2018-05-11T11:10:09.228Z,62.40
2018-05-11T11:12:37.536Z,60.40
2018-05-11T11:15:05.036Z,60.30
2018-05-11T11:17:32.537Z,58.10
2018-05-11T11:20:00.106Z,58.60
2018-05-11T11:22:28.351Z,56.30
2018-05-11T11:24:56.646Z,56.60
2018-05-11T11:27:24.146Z,56.60
2018-05-11T11:29:51.669Z,57.30
2018-05-11T11:32:19.173Z,58.40
2018-05-11T11:34:46.733Z,57.30
2018-05-11T11:37:14.217Z,56.60
2018-05-11T11:39:42.485Z,58.10
2018-05-11T11:42:10.082Z,57.70
2018-05-11T11:44:37.525Z,59.00
2018-05-11T11:47:05.815Z,56.10
2018-05-11T11:49:33.324Z,56.00
2018-05-11T11:52:00.851Z,55.30
2018-05-11T11:54:28.354Z,54.50
2018-05-11T11:56:55.931Z,55.50
2018-05-11T11:59:23.400Z,56.30
2018-05-11T12:01:51.671Z,53.30
2018-05-11T12:04:19.209Z,53.20
2018-05-11T12:06:46.709Z,50.80
2018-05-11T12:09:14.233Z,50.40
2018-05-11T12:11:42.501Z,49.50
2018-05-11T12:14:10.002Z,49.40
2018-05-11T12:16:37.529Z,49.80
2018-05-11T12:19:05.796Z,49.80
2018-05-11T12:21:33.321Z,49.50
2018-05-11T12:24:00.821Z,49.60
2018-05-11T12:26:29.112Z,50.60
2018-05-11T12:28:57.384Z,51.80
2018-05-11T12:31:25.648Z,52.10
2018-05-11T12:33:53.173Z,52.10
2018-05-11T12:36:20.676Z,52.20
2018-05-11T12:38:48.964Z,54.60
2018-05-11T12:41:16.466Z,54.50
2018-05-11T12:43:44.004Z,55.20
2018-05-11T12:46:11.501Z,54.40
2018-05-11T12:48:39.026Z,55.40
2018-05-11T12:51:06.524Z,54.60
2018-05-11T12:53:34.021Z,51.30
2018-05-11T12:56:01.545Z,49.80
2018-05-11T12:58:29.045Z,50.10
2018-05-11T13:00:56.570Z,49.60
2018-05-11T13:03:24.067Z,50.10
2018-05-11T13:05:51.589Z,49.60
2018-05-11T13:08:19.865Z,51.70
2018-05-11T13:10:48.152Z,53.00
2018-05-11T13:13:16.478Z,53.80
2018-05-11T13:15:44.705Z,52.90
2018-05-11T13:18:12.993Z,50.10
2018-05-11T13:20:40.494Z,50.10
2018-05-11T13:23:08.025Z,51.00
2018-05-11T13:25:35.533Z,53.10
2018-05-11T13:28:03.056Z,52.20
2018-05-11T13:30:30.586Z,53.50
2018-05-11T13:32:58.861Z,54.40
2018-05-11T13:35:26.352Z,54.30
2018-05-11T13:37:53.852Z,52.90
2018-05-11T13:40:21.373Z,52.70
2018-05-11T13:42:48.869Z,51.30
2018-05-11T13:45:16.388Z,49.90
2018-05-11T13:47:43.881Z,46.40
2018-05-11T13:50:11.400Z,45.10
2018-05-11T13:52:38.892Z,46.50
2018-05-11T13:55:06.417Z,47.20
2018-05-11T13:57:33.916Z,47.20
2018-05-11T14:00:01.441Z,48.10
2018-05-11T14:02:28.938Z,46.40
2018-05-11T14:04:56.441Z,48.20
2018-05-11T14:07:23.965Z,49.60
2018-05-11T14:09:52.221Z,50.60
2018-05-11T14:12:19.740Z,50.60
2018-05-11T14:14:47.230Z,49.00
2018-05-11T14:17:14.745Z,50.40
2018-05-11T14:19:42.251Z,49.00
2018-05-11T14:22:09.746Z,50.30
2018-05-11T14:24:37.273Z,50.20
2018-05-11T14:27:04.772Z,48.90
2018-05-11T14:29:32.293Z,49.90
2018-05-11T14:31:59.808Z,50.30
2018-05-11T14:34:27.329Z,51.70
2018-05-11T14:36:55.594Z,50.50
2018-05-11T14:39:23.193Z,50.40
2018-05-11T14:41:50.625Z,49.70
2018-05-11T14:44:18.889Z,51.20
2018-05-11T14:46:46.400Z,51.20
2018-05-11T14:49:13.900Z,50.70
2018-05-11T14:51:41.424Z,51.40
2018-05-11T14:54:08.918Z,50.70
2018-05-11T14:56:36.437Z,51.30
2018-05-11T14:59:03.932Z,52.10
2018-05-11T15:01:32.213Z,52.90
2018-05-11T15:03:59.711Z,52.90
2018-05-11T15:06:27.209Z,54.50
2018-05-11T15:08:54.725Z,55.00
2018-05-11T15:11:22.220Z,54.30
2018-05-11T15:13:49.734Z,53.80
2018-05-11T15:16:17.230Z,54.00
2018-05-11T15:18:44.754Z,55.30
2018-05-11T15:21:12.262Z,55.90
2018-05-11T15:23:39.752Z,55.80
2018-05-11T15:26:08.038Z,56.20
2018-05-11T15:28:36.292Z,55.90
2018-05-11T15:31:03.832Z,55.80
2018-05-11T15:33:31.325Z,56.20
2018-05-11T15:35:59.610Z,56.80
2018-05-11T15:38:27.873Z,56.30
2018-05-11T15:40:56.161Z,55.80
2018-05-11T15:43:24.423Z,55.80
2018-05-11T15:45:52.685Z,56.80
2018-05-11T15:48:20.205Z,56.20
2018-05-11T15:50:47.709Z,57.10
2018-05-11T15:53:15.233Z,57.70
2018-05-11T15:55:42.736Z,57.70
2018-05-11T15:58:11.024Z,58.10
2018-05-11T16:00:39.285Z,57.90
2018-05-11T16:03:07.548Z,57.90
2018-05-11T16:05:35.077Z,57.70
2018-05-11T16:08:02.568Z,58.20
2018-05-11T16:10:30.093Z,58.20
2018-05-11T16:12:57.655Z,58.80
2018-05-11T16:15:25.889Z,60.00
2018-05-11T16:17:54.155Z,60.30
2018-05-11T16:20:22.441Z,60.20
2018-05-11T16:22:50.708Z,60.10
2018-05-11T16:25:18.968Z,60.90
2018-05-11T16:27:46.484Z,60.90
2018-05-11T16:30:13.977Z,61.30
2018-05-11T16:32:41.504Z,61.60
2018-05-11T16:35:09.014Z,62.00
2018-05-11T16:37:37.556Z,64.30
2018-05-11T16:40:05.052Z,64.30
2018-05-11T16:42:32.553Z,64.90
2018-05-11T16:45:00.079Z,66.10
2018-05-11T16:47:28.344Z,66.90
2018-05-11T16:49:55.868Z,66.90
2018-05-11T16:52:23.376Z,69.00
2018-05-11T16:54:51.674Z,68.30
2018-05-11T16:57:19.182Z,68.30
2018-05-11T16:59:46.704Z,69.40
2018-05-11T17:02:14.201Z,70.20
2018-05-11T17:04:41.709Z,70.60
2018-05-11T17:07:09.239Z,71.10
2018-05-11T17:09:37.512Z,71.20
2018-05-11T17:12:05.808Z,71.80
2018-05-11T17:14:33.307Z,71.80
2018-05-11T17:17:00.828Z,71.70
2018-05-11T17:19:28.323Z,70.50
2018-05-11T17:21:55.824Z,70.40
2018-05-11T17:24:24.116Z,70.90
2018-05-11T17:26:52.380Z,71.40
2018-05-11T17:29:20.669Z,71.50
2018-05-11T17:31:48.932Z,71.40
2018-05-11T17:34:17.301Z,71.90
2018-05-11T17:36:44.808Z,71.90
2018-05-11T17:39:12.333Z,72.70
2018-05-11T17:41:40.630Z,73.50
2018-05-11T17:44:08.125Z,73.50
2018-05-11T17:46:35.645Z,73.60
2018-05-11T17:49:03.145Z,73.40
2018-05-11T17:51:30.670Z,73.20
2018-05-11T17:53:58.169Z,74.10
2018-05-11T17:56:25.697Z,74.50
2018-05-11T17:58:53.205Z,75.30
2018-05-11T18:01:20.737Z,75.40
2018-05-11T18:03:48.236Z,75.60
2018-05-11T18:06:16.507Z,76.10
2018-05-11T18:08:44.797Z,76.20
2018-05-11T18:11:13.069Z,76.40
2018-05-11T18:13:41.356Z,76.50
2018-05-11T18:16:08.864Z,76.50
2018-05-11T18:18:36.389Z,76.20
2018-05-11T18:21:03.892Z,77.00
2018-05-11T18:23:31.421Z,77.50
2018-05-11T18:25:58.928Z,77.90
2018-05-11T18:28:27.188Z,78.00
2018-05-11T18:30:54.747Z,77.90
2018-05-11T18:33:22.432Z,78.40
2018-05-11T18:35:50.712Z,79.20
2018-05-11T18:38:18.977Z,79.40
2018-05-11T18:40:46.508Z,79.30
2018-05-11T18:43:14.005Z,80.10
2018-05-11T18:45:42.293Z,81.30
2018-05-11T18:48:09.792Z,81.30
2018-05-11T18:50:37.316Z,81.40
2018-05-11T18:53:05.008Z,81.80
2018-05-11T18:55:32.344Z,82.00
2018-05-11T18:57:59.868Z,82.40
2018-05-11T19:00:28.133Z,83.00
2018-05-11T19:02:55.657Z,82.90
2018-05-11T19:05:23.158Z,83.10
2018-05-11T19:07:50.685Z,83.70
2018-05-11T19:10:18.185Z,84.20
2018-05-11T19:12:46.452Z,84.90
2018-05-11T19:15:13.980Z,84.80
2018-05-11T19:17:41.481Z,85.20
2018-05-11T19:20:09.783Z,85.80
2018-05-11T19:22:37.284Z,85.70
2018-05-11T19:25:04.825Z,86.00
2018-05-11T19:27:32.327Z,86.40
2018-05-11T19:30:00.589Z,87.20
2018-05-11T19:32:28.113Z,87.00
2018-05-11T19:34:55.640Z,87.40
2018-05-11T19:37:23.545Z,87.20
2018-05-11T19:39:51.050Z,87.70
2018-05-11T19:42:19.348Z,87.40
2018-05-11T19:44:46.849Z,87.40
2018-05-11T19:47:14.377Z,86.80
2018-05-11T19:49:41.900Z,86.70
2018-05-11T19:52:10.165Z,87.10
2018-05-11T19:54:38.452Z,87.90
2018-05-11T19:57:06.722Z,88.60
2018-05-11T19:59:34.249Z,88.60
2018-05-11T20:02:01.758Z,89.50
2018-05-11T20:04:30.021Z,90.50
2018-05-11T20:06:58.333Z,91.00
2018-05-11T20:09:25.845Z,90.60
2018-05-11T20:11:53.381Z,90.80
2018-05-11T20:14:20.885Z,90.80
2018-05-11T20:16:49.178Z,91.00
2018-05-11T20:19:17.567Z,91.00
2018-05-11T20:21:45.090Z,91.10
2018-05-11T20:24:12.617Z,91.30
2018-05-11T20:26:40.117Z,91.50
2018-05-11T20:29:08.408Z,92.00
2018-05-11T20:31:35.917Z,92.00
2018-05-11T20:34:03.436Z,92.00
2018-05-11T20:36:30.941Z,92.10
2018-05-11T20:38:58.468Z,92.40
2018-05-11T20:41:25.969Z,92.30
2018-05-11T20:43:53.474Z,92.30
2018-05-11T20:46:20.996Z,92.40
2018-05-11T20:48:49.264Z,92.30
2018-05-11T20:51:16.785Z,92.30
2018-05-11T20:53:44.292Z,92.40
2018-05-11T20:56:12.589Z,92.60
2018-05-11T20:58:40.105Z,92.60
2018-05-11T21:01:07.603Z,92.70
2018-05-11T21:03:35.286Z,92.80
2018-05-11T21:06:02.787Z,93.10
2018-05-11T21:08:30.313Z,93.30
2018-05-11T21:10:57.827Z,93.60
2018-05-11T21:13:26.117Z,94.00
2018-05-11T21:15:53.612Z,94.00
2018-05-11T21:18:21.118Z,94.10
2018-05-11T21:20:49.405Z,94.30
2018-05-11T21:23:16.908Z,94.30
2018-05-11T21:25:44.433Z,94.40
2018-05-11T21:28:11.937Z,94.70
2018-05-11T21:30:39.460Z,95.00
2018-05-11T21:33:06.960Z,95.20
2018-05-11T21:35:34.485Z,95.40
2018-05-11T21:38:01.989Z,95.50
2018-05-11T21:40:29.493Z,95.80
2018-05-11T21:42:57.018Z,95.80
2018-05-11T21:45:25.284Z,96.10
2018-05-11T21:47:52.809Z,96.10
2018-05-11T21:50:20.318Z,96.20
2018-05-11T21:52:48.613Z,96.50
2018-05-11T21:55:16.121Z,96.50
2018-05-11T21:57:43.651Z,96.60
2018-05-11T22:00:11.153Z,96.70
2018-05-11T22:02:38.653Z,96.80
2018-05-11T22:05:06.181Z,97.00
2018-05-11T22:07:34.449Z,97.00
2018-05-11T22:10:02.747Z,97.20
2018-05-11T22:12:31.017Z,97.50
2018-05-11T22:14:59.312Z,97.60
2018-05-11T22:17:26.816Z,97.60
2018-05-11T22:19:54.341Z,97.70
2018-05-11T22:22:21.840Z,97.70
2018-05-11T22:24:50.133Z,97.80
2018-05-11T22:27:17.637Z,98.00
2018-05-11T22:29:45.140Z,98.10
2018-05-11T22:32:12.672Z,98.20
2018-05-11T22:34:40.173Z,98.30
2018-05-11T22:37:08.461Z,98.70
2018-05-11T22:39:36.729Z,98.70
2018-05-11T22:42:05.110Z,98.70
2018-05-11T22:44:32.541Z,98.70
2018-05-11T22:47:00.070Z,98.80
2018-05-11T22:49:27.568Z,98.90
2018-05-11T22:51:55.069Z,99.00
2018-05-11T22:54:22.601Z,99.00
2018-05-11T22:56:50.865Z,99.00
2018-05-11T22:59:18.397Z,99.00
2018-05-11T23:01:45.898Z,99.00
2018-05-11T23:04:14.194Z,99.00
2018-05-11T23:06:41.705Z,98.90
2018-05-11T23:09:09.204Z,98.90
2018-05-11T23:11:36.725Z,99.00
2018-05-11T23:14:04.224Z,99.00
2018-05-11T23:16:31.744Z,99.10
2018-05-11T23:18:59.249Z,99.20
2018-05-11T23:21:26.774Z,99.20
2018-05-11T23:23:54.276Z,99.30
2018-05-11T23:26:21.796Z,99.40
2018-05-11T23:28:50.065Z,99.60
2018-05-11T23:31:17.569Z,99.50
2018-05-11T23:33:45.096Z,99.60
2018-05-11T23:36:13.360Z,99.60
2018-05-11T23:38:40.885Z,99.60
2018-05-11T23:41:08.385Z,99.70
2018-05-11T23:43:36.680Z,99.80
2018-05-11T23:46:04.180Z,99.80
2018-05-11T23:48:31.684Z,99.90
2018-05-11T23:50:59.972Z,99.90
2018-05-11T23:53:27.473Z,99.90
2018-05-11T23:55:54.997Z,99.90
2018-05-11T23:58:22.504Z,99.90
